KMSO/MSO METAR and TAF weather

Enter ICAO airport designator
Station Type Date Time Source
KMSO METAR 2019/12/09 05:53 UTC NOAA

KMSO 090553Z AUTO 35005KT 10SM BKN043 OVC049 01/M06 A3006 RMK AO2 SLP201 T00061056 10022 20000 51020


Station Type Date Time Source
KMSO Decoded METAR 2019/12/09 05:53 UTC NOAA

MISSOULA INTERNATIONAL AIRPORT , MT, United States (KMSO) 46-55N 114-06W 975M
Dec 09, 2019 - 12:53 AM EST / 2019.12.09 0553 UTC
Wind: from the N (350 degrees) at 6 MPH (5 KT):0
Visibility: 10 mile(s):0
Sky conditions: overcast
Temperature: 33.1 F (0.6 C)
Windchill: 28 F (-2 C):1
Dew Point: 21.9 F (-5.6 C)
Relative Humidity: 63%
Pressure (altimeter): 30.06 in. Hg (1017 hPa)
Pressure tendency: 0.06 inches (2.0 hPa) higher than three hours ago
ob: KMSO 090553Z AUTO 35005KT 10SM BKN043 OVC049 01/M06 A3006 RMK AO2 SLP201 T00061056 10022 20000 51020
cycle: 6

Station Type Date Time Source
KMSO TAF 2019/12/09 06:28 UTC NOAA

TAF KMSO 090525Z 0906/1006 00000KT P6SM BKN040 OVC050
FM091200 00000KT 5SM BR BKN035
FM091500 12003KT P6SM OVC050

Example: see airport list